Time;durP1;ratioP1;P1;durP2;ratioP2;P2;SDS_P1;SDS_P2;PMS_P1;PMS_P2;Temp;Humidity;BMP_temperature;BMP_pressure;BME280_temperature;BME280_humidity;BME280_pressure;Samples;Min_cycle;Max_cycle;Signal;HPM_P1;HPM_P2
2022/08/25 00:01:13;;;;;;;7.65;2.47;;;21.70;99.90;;;;;;5030659;28;20041;-54
2022/08/25 00:03:39;;;;;;;3.97;3.08;;;21.70;99.90;;;;;;5034508;28;20032;-54
2022/08/25 00:06:05;;;;;;;3.83;2.10;;;21.70;99.90;;;;;;5030903;28;20178;-56
2022/08/25 00:08:33;;;;;;;3.40;2.67;;;21.70;99.90;;;;;;5046367;28;20110;-55
2022/08/25 00:11:00;;;;;;;5.70;2.42;;;21.70;99.90;;;;;;5036973;28;20040;-52
2022/08/25 00:13:27;;;;;;;5.82;2.72;;;21.70;99.90;;;;;;5031600;28;20156;-54
2022/08/25 00:15:53;;;;;;;3.38;2.45;;;21.70;99.90;;;;;;5053921;22;20052;-59
2022/08/25 00:18:18;;;;;;;4.57;2.35;;;21.70;99.90;;;;;;5034642;28;20490;-60
2022/08/25 00:20:44;;;;;;;2.88;2.28;;;21.60;99.90;;;;;;5011273;28;20141;-60
2022/08/25 00:23:10;;;;;;;3.95;2.17;;;21.60;99.90;;;;;;5034157;28;20061;-61
2022/08/25 00:25:35;;;;;;;8.90;2.63;;;21.60;99.90;;;;;;5034907;28;20118;-60
2022/08/25 00:28:01;;;;;;;4.15;2.20;;;21.60;99.90;;;;;;5027562;28;20037;-59
2022/08/25 00:30:27;;;;;;;4.60;2.70;;;21.60;99.90;;;;;;5033319;28;20036;-58
2022/08/25 00:32:52;;;;;;;4.13;2.15;;;21.60;99.90;;;;;;5029370;28;20036;-61
2022/08/25 00:35:18;;;;;;;4.93;2.47;;;21.60;99.90;;;;;;5031457;28;20507;-60
2022/08/25 00:37:44;;;;;;;3.13;2.40;;;21.60;99.90;;;;;;5032758;28;20067;-62
2022/08/25 00:40:10;;;;;;;5.00;2.30;;;21.60;99.90;;;;;;5035775;28;20032;-59
2022/08/25 00:42:36;;;;;;;4.57;2.72;;;21.60;99.90;;;;;;5034139;28;20067;-62
2022/08/25 00:45:03;;;;;;;3.45;2.25;;;21.50;99.90;;;;;;5031251;28;20060;-59
2022/08/25 00:47:30;;;;;;;2.70;2.00;;;21.50;99.90;;;;;;5032886;28;20103;-61
2022/08/25 00:50:00;;;;;;;4.80;2.28;;;21.50;99.90;;;;;;5033843;28;20040;-62
2022/08/25 00:52:33;;;;;;;7.95;2.30;;;21.50;99.90;;;;;;5034499;28;20060;-61
2022/08/25 00:55:06;;;;;;;3.17;2.25;;;21.40;99.90;;;;;;5030540;28;20063;-58
2022/08/25 00:57:37;;;;;;;9.33;2.70;;;21.40;99.90;;;;;;5030439;28;20083;-61
2022/08/25 01:00:24;;;;;;;8.43;2.42;;;21.30;99.90;;;;;;5031769;28;20322;-57
2022/08/25 01:02:49;;;;;;;5.13;2.53;;;21.30;99.90;;;;;;5030143;28;20041;-59
2022/08/25 01:05:16;;;;;;;4.72;2.10;;;21.20;99.90;;;;;;5031698;28;20490;-58
2022/08/25 01:07:42;;;;;;;7.18;2.35;;;21.20;99.90;;;;;;5035096;28;20037;-61
2022/08/25 01:10:09;;;;;;;2.78;2.35;;;21.20;99.90;;;;;;5034005;28;20116;-60
2022/08/25 01:12:36;;;;;;;3.45;2.35;;;21.20;99.90;;;;;;5033255;28;20028;-62
2022/08/25 01:15:03;;;;;;;4.40;1.92;;;21.20;99.90;;;;;;5029354;28;20163;-57
2022/08/25 01:17:37;;;;;;;5.00;2.53;;;21.20;99.90;;;;;;5031163;28;20029;-60
2022/08/25 01:20:03;;;;;;;3.80;2.78;;;21.20;99.90;;;;;;5035136;28;20041;-61
2022/08/25 01:22:31;;;;;;;3.25;2.28;;;21.30;99.90;;;;;;5034191;28;20036;-60
2022/08/25 01:25:03;;;;;;;7.47;2.72;;;21.30;99.90;;;;;;5030062;28;20025;-57
2022/08/25 01:27:29;;;;;;;4.13;2.60;;;21.30;99.90;;;;;;5031457;28;20029;-57
2022/08/25 01:29:56;;;;;;;4.57;2.42;;;21.20;99.90;;;;;;5027272;28;20032;-59
2022/08/25 01:32:22;;;;;;;8.10;3.15;;;21.20;99.90;;;;;;5031725;28;20036;-62
2022/08/25 01:34:48;;;;;;;3.47;2.50;;;21.10;99.90;;;;;;5033285;28;20024;-60
2022/08/25 01:37:15;;;;;;;5.13;3.55;;;21.00;99.90;;;;;;5032023;28;20174;-60
2022/08/25 01:39:41;;;;;;;5.18;2.80;;;20.80;99.90;;;;;;5031849;28;20075;-61
2022/08/25 01:42:10;;;;;;;8.40;2.90;;;20.70;99.90;;;;;;5032660;28;20422;-60
2022/08/25 01:44:43;;;;;;;3.88;2.85;;;20.60;99.90;;;;;;5036391;28;20033;-60
2022/08/25 01:47:11;;;;;;;4.37;2.87;;;20.50;99.90;;;;;;5032460;28;20487;-60
2022/08/25 01:49:36;;;;;;;3.97;2.78;;;20.40;99.90;;;;;;5037458;28;20436;-59
2022/08/25 01:52:05;;;;;;;3.83;2.35;;;20.40;99.90;;;;;;5031133;28;20025;-60
2022/08/25 01:54:31;;;;;;;8.70;3.03;;;20.30;99.90;;;;;;5035710;28;20021;-61
2022/08/25 01:56:58;;;;;;;5.75;2.70;;;20.30;99.90;;;;;;5028339;28;20021;-59
2022/08/25 01:59:24;;;;;;;4.95;2.80;;;20.30;99.90;;;;;;5032305;28;20087;-61
2022/08/25 02:01:50;;;;;;;6.68;2.92;;;20.20;99.90;;;;;;5029089;28;20037;-57
2022/08/25 02:04:16;;;;;;;4.53;2.80;;;20.10;99.90;;;;;;5031984;28;20043;-59
2022/08/25 02:06:41;;;;;;;9.48;2.70;;;20.10;99.90;;;;;;5033137;28;21755;-60
2022/08/25 02:09:10;;;;;;;4.10;2.33;;;20.00;99.90;;;;;;5027004;28;20059;-59
2022/08/25 02:11:38;;;;;;;3.72;2.50;;;20.00;99.90;;;;;;5030282;28;20033;-60
2022/08/25 02:14:05;;;;;;;4.15;2.67;;;19.90;99.90;;;;;;5031527;28;20025;-60
2022/08/25 02:16:34;;;;;;;5.20;2.53;;;19.90;99.90;;;;;;5033474;28;20441;-60
2022/08/25 02:19:00;;;;;;;7.45;3.03;;;19.80;99.90;;;;;;5033324;28;20055;-62
2022/08/25 02:21:27;;;;;;;6.60;2.50;;;19.80;99.90;;;;;;5032056;28;21005;-61
2022/08/25 02:23:52;;;;;;;6.53;2.50;;;19.70;99.90;;;;;;5027512;28;20048;-59
2022/08/25 02:26:18;;;;;;;7.25;2.55;;;19.70;99.90;;;;;;5030214;28;20057;-58
2022/08/25 02:28:49;;;;;;;4.88;2.65;;;19.60;99.90;;;;;;5028082;28;20142;-60
2022/08/25 02:31:16;;;;;;;4.13;2.58;;;19.60;99.90;;;;;;5031508;28;20565;-62
2022/08/25 02:33:42;;;;;;;5.45;2.97;;;19.50;99.90;;;;;;5035576;28;20135;-60
2022/08/25 02:36:07;;;;;;;7.65;3.15;;;19.40;99.90;;;;;;5034290;28;20016;-61
2022/08/25 02:38:34;;;;;;;8.15;2.72;;;19.40;99.90;;;;;;5030612;28;20394;-60
2022/08/25 02:41:06;;;;;;;5.55;2.85;;;19.30;99.90;;;;;;5030851;28;20029;-60
2022/08/25 02:43:32;;;;;;;4.53;3.28;;;19.30;99.90;;;;;;5028907;28;20048;-61
2022/08/25 02:45:58;;;;;;;5.50;3.22;;;19.20;99.90;;;;;;5031575;28;20440;-61
2022/08/25 02:48:24;;;;;;;4.43;2.83;;;19.20;99.90;;;;;;5030408;28;20032;-62
2022/08/25 02:50:51;;;;;;;5.38;2.90;;;19.10;99.90;;;;;;5032918;28;20060;-61
2022/08/25 02:53:19;;;;;;;7.80;3.50;;;19.20;99.90;;;;;;5034480;28;20120;-58
2022/08/25 02:55:45;;;;;;;7.28;2.58;;;19.20;99.90;;;;;;5033107;28;20124;-61
2022/08/25 02:58:10;;;;;;;3.58;2.83;;;19.20;99.90;;;;;;5033979;28;20442;-61
2022/08/25 03:00:37;;;;;;;5.80;2.63;;;19.20;99.90;;;;;;5034500;28;20552;-60
2022/08/25 03:03:04;;;;;;;4.05;2.70;;;19.10;99.90;;;;;;5035436;28;21081;-60
2022/08/25 03:05:30;;;;;;;7.47;2.88;;;19.10;99.90;;;;;;5035207;28;20151;-60
2022/08/25 03:07:55;;;;;;;6.50;3.30;;;19.00;99.90;;;;;;5031509;28;20129;-61
2022/08/25 03:10:21;;;;;;;4.88;2.90;;;19.00;99.90;;;;;;5033786;28;20029;-61
2022/08/25 03:12:46;;;;;;;6.80;3.30;;;18.90;99.90;;;;;;5040244;28;20032;-61
2022/08/25 03:15:17;;;;;;;5.80;3.00;;;19.00;99.90;;;;;;5034001;28;20033;-60
2022/08/25 03:17:44;;;;;;;4.15;2.72;;;19.00;99.90;;;;;;5017948;28;20717;-61
2022/08/25 03:20:10;;;;;;;8.18;3.13;;;19.00;99.90;;;;;;5034669;28;20159;-61
2022/08/25 03:22:36;;;;;;;6.03;3.53;;;19.00;99.90;;;;;;5029456;28;20052;-59
2022/08/25 03:27:50;;;;;;;9.25;2.92;;;19.00;99.90;;;;;;5033995;28;20040;-61
2022/08/25 03:30:16;;;;;;;8.45;3.10;;;18.90;99.90;;;;;;5031857;28;21466;-60
2022/08/25 03:32:41;;;;;;;5.93;2.70;;;18.90;99.90;;;;;;5033480;28;20036;-61
2022/08/25 03:35:08;;;;;;;4.57;2.58;;;18.90;99.90;;;;;;5032857;28;20037;-60
2022/08/25 03:37:35;;;;;;;5.85;2.90;;;18.80;99.90;;;;;;5032257;28;20068;-59
2022/08/25 03:40:03;;;;;;;6.85;2.78;;;18.80;99.90;;;;;;5035064;28;20427;-60
2022/08/25 03:42:29;;;;;;;8.35;2.75;;;18.80;99.90;;;;;;5033424;28;20081;-60
2022/08/25 03:44:54;;;;;;;4.57;2.70;;;18.70;99.90;;;;;;5030439;28;20032;-60
2022/08/25 03:47:20;;;;;;;4.50;2.88;;;18.70;99.90;;;;;;5030474;28;20036;-58
2022/08/25 03:49:46;;;;;;;3.67;3.00;;;18.50;99.90;;;;;;5035360;28;20132;-60
2022/08/25 03:52:12;;;;;;;6.13;2.72;;;18.50;99.90;;;;;;5029180;28;20028;-59
2022/08/25 03:54:37;;;;;;;4.10;2.92;;;18.50;99.90;;;;;;5035772;28;20483;-58
2022/08/25 03:57:03;;;;;;;8.25;3.20;;;18.50;99.90;;;;;;5035850;28;20107;-61
2022/08/25 03:59:28;;;;;;;5.15;2.42;;;18.40;99.90;;;;;;5028794;28;20059;-61
2022/08/25 04:01:54;;;;;;;5.07;3.13;;;18.50;99.90;;;;;;5033865;28;20032;-59
2022/08/25 04:04:20;;;;;;;10.18;3.75;;;18.50;99.90;;;;;;5031239;28;20036;-60
2022/08/25 04:06:46;;;;;;;5.38;2.72;;;18.50;99.90;;;;;;5031539;28;20118;-60
2022/08/25 04:09:11;;;;;;;5.28;2.70;;;18.50;99.90;;;;;;5038258;28;20590;-57
2022/08/25 04:11:39;;;;;;;3.70;2.85;;;18.50;99.90;;;;;;5035240;28;20064;-60
2022/08/25 04:14:05;;;;;;;4.50;3.67;;;18.40;99.90;;;;;;5033866;28;20025;-61
2022/08/25 04:16:33;;;;;;;5.10;3.42;;;18.30;99.90;;;;;;5031341;28;20041;-59
2022/08/25 04:19:01;;;;;;;3.80;3.25;;;18.20;99.90;;;;;;5034630;28;20040;-60
2022/08/25 04:21:28;;;;;;;6.72;3.40;;;18.10;99.90;;;;;;5033022;28;20091;-59
2022/08/25 04:23:55;;;;;;;7.85;4.05;;;18.10;99.90;;;;;;5035862;28;20124;-58
2022/08/25 04:26:20;;;;;;;6.28;3.28;;;18.20;99.90;;;;;;5030723;28;20095;-60
2022/08/25 04:28:46;;;;;;;6.35;3.03;;;18.20;99.90;;;;;;5031179;28;20045;-58
2022/08/25 04:31:13;;;;;;;10.88;3.28;;;18.20;99.90;;;;;;5030648;28;20169;-59
2022/08/25 04:33:40;;;;;;;8.15;3.40;;;18.20;99.90;;;;;;5030761;28;20029;-59
2022/08/25 04:36:10;;;;;;;5.05;3.35;;;18.20;99.90;;;;;;5032678;28;20112;-55
2022/08/25 04:38:37;;;;;;;6.88;2.95;;;18.20;99.90;;;;;;5030003;28;20151;-61
2022/08/25 04:41:05;;;;;;;5.75;3.08;;;18.20;99.90;;;;;;5036628;28;20025;-60
2022/08/25 04:43:31;;;;;;;5.95;3.42;;;18.30;99.90;;;;;;5032597;28;20342;-61
2022/08/25 04:45:58;;;;;;;8.07;3.25;;;18.30;99.90;;;;;;5028913;28;20028;-58
2022/08/25 04:48:25;;;;;;;9.25;3.67;;;18.30;99.90;;;;;;5033263;28;20032;-60
2022/08/25 04:50:50;;;;;;;7.28;3.42;;;18.20;99.90;;;;;;5032529;28;20025;-58
2022/08/25 04:53:16;;;;;;;6.75;3.30;;;18.20;99.90;;;;;;5031456;28;20057;-61
2022/08/25 04:55:46;;;;;;;6.65;3.20;;;18.20;99.90;;;;;;5030198;28;20029;-60
2022/08/25 04:58:14;;;;;;;5.18;3.25;;;18.30;99.90;;;;;;5030949;28;20039;-60
2022/08/25 05:00:40;;;;;;;5.13;2.95;;;18.30;99.90;;;;;;5028050;28;20025;-59
2022/08/25 05:03:07;;;;;;;8.02;3.55;;;18.40;99.90;;;;;;5028578;28;20037;-62
2022/08/25 05:05:35;;;;;;;7.13;3.55;;;18.40;99.90;;;;;;5034762;28;20039;-62
2022/08/25 05:08:01;;;;;;;6.38;4.38;;;18.40;99.90;;;;;;5033041;28;20398;-61
2022/08/25 05:10:27;;;;;;;12.13;3.20;;;18.40;99.90;;;;;;5028078;28;20085;-60
2022/08/25 05:12:53;;;;;;;5.82;3.53;;;18.30;99.90;;;;;;5026768;28;20378;-62
2022/08/25 05:18:02;;;;;;;7.55;2.90;;;18.30;99.90;;;;;;5035114;28;20187;-60
2022/08/25 05:20:29;;;;;;;7.28;3.47;;;18.30;99.90;;;;;;5031314;28;20041;-63
2022/08/25 05:22:56;;;;;;;4.53;3.13;;;18.40;99.90;;;;;;5030710;28;20063;-60
2022/08/25 05:25:22;;;;;;;7.80;3.30;;;18.40;99.90;;;;;;5032416;28;20641;-63
2022/08/25 05:27:48;;;;;;;6.15;3.22;;;18.40;99.90;;;;;;5031505;28;20090;-62
2022/08/25 05:30:14;;;;;;;6.45;3.53;;;18.40;99.90;;;;;;5046447;28;20039;-63
2022/08/25 05:32:40;;;;;;;8.45;3.10;;;18.50;99.90;;;;;;5045275;28;20139;-63
2022/08/25 05:35:07;;;;;;;7.38;3.45;;;18.50;99.90;;;;;;5041579;28;20135;-63
2022/08/25 05:37:32;;;;;;;6.97;3.03;;;18.60;99.90;;;;;;5049338;28;20119;-63
2022/08/25 05:39:58;;;;;;;5.03;3.22;;;18.60;99.90;;;;;;5050601;28;20112;-61
2022/08/25 05:42:24;;;;;;;5.78;3.35;;;18.70;99.90;;;;;;5032178;28;20425;-62
2022/08/25 05:44:50;;;;;;;6.32;3.30;;;18.80;99.90;;;;;;5048888;28;20124;-62
2022/08/25 05:47:16;;;;;;;5.97;3.00;;;18.80;99.90;;;;;;5049254;28;20463;-63
2022/08/25 05:49:41;;;;;;;6.53;3.38;;;18.80;99.90;;;;;;5050389;28;20376;-61
2022/08/25 05:52:07;;;;;;;5.03;3.00;;;18.90;99.90;;;;;;5049683;28;20269;-63
2022/08/25 05:54:32;;;;;;;8.82;3.40;;;18.90;99.90;;;;;;5048907;28;20037;-62
2022/08/25 05:56:58;;;;;;;5.85;3.50;;;19.00;99.90;;;;;;5051545;28;20153;-62
2022/08/25 05:59:24;;;;;;;5.45;3.70;;;19.10;99.90;;;;;;5050183;28;20029;-63
2022/08/25 06:04:33;;;;;;;8.43;3.83;;;19.20;99.90;;;;;;5049555;28;20090;-63
2022/08/25 06:06:59;;;;;;;7.35;3.97;;;19.30;99.90;;;;;;5048305;28;20041;-63
2022/08/25 06:09:25;;;;;;;5.32;3.45;;;19.40;99.90;;;;;;5050375;28;20064;-63
2022/08/25 06:11:51;;;;;;;5.78;3.13;;;19.50;99.90;;;;;;5049680;28;20085;-61
2022/08/25 06:14:17;;;;;;;8.57;3.40;;;19.60;99.90;;;;;;5048889;28;20022;-63
2022/08/25 06:16:43;;;;;;;10.52;2.97;;;19.70;99.90;;;;;;5052044;28;20970;-61
2022/08/25 06:19:09;;;;;;;11.30;4.50;;;19.80;99.90;;;;;;5053669;22;20079;-53
2022/08/25 06:21:37;;;;;;;7.60;3.22;;;19.90;99.90;;;;;;5029610;28;20020;-50
2022/08/25 06:24:04;;;;;;;8.85;3.08;;;20.10;99.90;;;;;;5029143;28;20048;-51
2022/08/25 06:26:29;;;;;;;12.73;3.30;;;20.10;99.90;;;;;;5030937;28;20041;-50
2022/08/25 06:28:55;;;;;;;12.65;3.75;;;20.30;99.90;;;;;;5020848;28;20045;-52
2022/08/25 06:31:21;;;;;;;15.23;3.83;;;20.40;99.90;;;;;;5011997;28;20097;-51
2022/08/25 06:33:47;;;;;;;9.50;3.40;;;20.40;99.90;;;;;;5025664;28;20044;-51
2022/08/25 06:36:14;;;;;;;13.07;3.33;;;20.50;99.90;;;;;;5012178;28;20034;-50
2022/08/25 06:38:39;;;;;;;10.23;3.42;;;20.50;99.90;;;;;;5018224;28;20017;-51
2022/08/25 06:41:06;;;;;;;8.00;3.35;;;20.60;99.90;;;;;;5010208;28;20029;-51
2022/08/25 06:43:33;;;;;;;12.68;3.80;;;20.70;99.90;;;;;;5016306;28;20025;-51
2022/08/25 06:46:11;;;;;;;10.90;3.72;;;20.80;99.90;;;;;;5025809;28;20040;-52
2022/08/25 06:48:37;;;;;;;6.38;3.22;;;20.80;99.90;;;;;;5008479;28;20105;-51
2022/08/25 06:51:07;;;;;;;5.18;3.28;;;20.90;99.90;;;;;;5010163;28;20109;-51
2022/08/25 06:53:34;;;;;;;7.45;3.42;;;21.00;99.90;;;;;;5017454;28;20025;-52
2022/08/25 06:56:00;;;;;;;11.68;3.75;;;21.10;99.90;;;;;;5027839;28;20022;-51
2022/08/25 06:58:26;;;;;;;11.98;4.00;;;21.20;99.90;;;;;;5020669;28;20100;-51
2022/08/25 07:00:53;;;;;;;7.55;4.25;;;21.20;99.90;;;;;;5010328;28;20822;-52
2022/08/25 07:03:19;;;;;;;10.48;3.22;;;21.30;99.90;;;;;;5021888;28;20040;-51
2022/08/25 07:05:55;;;;;;;8.18;3.30;;;21.40;99.90;;;;;;5025168;28;20033;-50
2022/08/25 07:08:21;;;;;;;7.97;3.33;;;21.40;99.90;;;;;;5013135;28;20022;-51
2022/08/25 07:10:47;;;;;;;7.57;3.90;;;21.50;99.90;;;;;;5009736;28;20022;-50
2022/08/25 07:13:13;;;;;;;4.95;3.33;;;21.60;99.90;;;;;;5009152;28;20025;-51
2022/08/25 07:15:40;;;;;;;7.10;3.42;;;21.70;99.90;;;;;;5028985;28;20060;-51
2022/08/25 07:18:07;;;;;;;6.57;3.95;;;21.80;99.90;;;;;;5014935;28;20566;-51
2022/08/25 07:20:36;;;;;;;7.60;3.45;;;21.90;99.90;;;;;;5010677;28;20105;-52
2022/08/25 07:23:02;;;;;;;7.50;3.00;;;21.90;99.90;;;;;;5028006;28;20040;-52
2022/08/25 07:25:28;;;;;;;9.63;3.67;;;22.10;99.90;;;;;;5027822;28;20025;-51
2022/08/25 07:27:54;;;;;;;7.97;3.70;;;22.10;99.90;;;;;;5014425;28;20034;-50
2022/08/25 07:30:19;;;;;;;6.57;3.15;;;22.20;99.90;;;;;;4996577;28;20018;-52
2022/08/25 07:32:45;;;;;;;5.93;3.97;;;22.30;99.90;;;;;;4999216;28;20049;-52
2022/08/25 07:35:17;;;;;;;6.13;3.35;;;22.40;99.90;;;;;;4990141;28;20026;-52
2022/08/25 07:37:46;;;;;;;10.20;3.70;;;22.50;99.90;;;;;;4994413;28;20026;-52
2022/08/25 07:40:19;;;;;;;11.98;3.35;;;22.60;99.90;;;;;;4996088;28;20384;-50
2022/08/25 07:42:45;;;;;;;8.60;3.60;;;22.70;99.90;;;;;;4993502;28;20085;-51
2022/08/25 07:45:12;;;;;;;7.80;3.53;;;22.70;99.90;;;;;;4991921;28;20230;-53
2022/08/25 07:47:38;;;;;;;9.75;3.22;;;22.90;99.90;;;;;;4996175;28;20065;-54
2022/08/25 07:50:06;;;;;;;7.45;3.08;;;23.00;99.90;;;;;;5001058;28;20049;-50
2022/08/25 07:52:32;;;;;;;7.93;3.47;;;23.10;99.90;;;;;;4997361;28;20795;-50
2022/08/25 07:54:58;;;;;;;5.43;3.33;;;23.20;99.90;;;;;;4995543;28;20034;-51
2022/08/25 07:57:25;;;;;;;5.40;3.55;;;23.30;99.90;;;;;;4994493;28;20183;-50
2022/08/25 07:59:51;;;;;;;8.23;3.15;;;23.30;99.90;;;;;;5000177;28;20035;-50
2022/08/25 08:02:17;;;;;;;9.73;4.63;;;23.50;99.90;;;;;;4997310;28;20038;-52
2022/08/25 08:04:44;;;;;;;4.85;3.10;;;23.60;99.90;;;;;;4997184;28;20116;-52
2022/08/25 08:07:10;;;;;;;5.22;3.38;;;23.70;99.90;;;;;;4996019;28;20033;-51
2022/08/25 08:09:35;;;;;;;7.43;3.22;;;23.80;99.90;;;;;;4995366;28;20030;-53
2022/08/25 08:12:04;;;;;;;7.38;4.05;;;23.90;99.90;;;;;;4998013;28;20026;-52
2022/08/25 08:14:29;;;;;;;7.05;3.97;;;24.00;99.90;;;;;;4997148;28;20037;-54
2022/08/25 08:16:56;;;;;;;5.72;3.30;;;24.20;99.90;;;;;;4995042;28;20034;-51
2022/08/25 08:19:22;;;;;;;8.00;3.83;;;24.20;99.90;;;;;;4996631;28;20088;-52
2022/08/25 08:21:48;;;;;;;7.93;3.22;;;24.30;99.90;;;;;;4993526;28;20022;-53
2022/08/25 08:24:14;;;;;;;7.88;3.90;;;24.30;99.90;;;;;;4995308;28;20022;-54
2022/08/25 08:26:39;;;;;;;15.23;4.00;;;24.50;99.90;;;;;;4996147;28;20076;-53
2022/08/25 08:29:05;;;;;;;5.88;3.80;;;24.60;99.90;;;;;;4996514;28;20034;-52
2022/08/25 08:31:30;;;;;;;5.82;3.88;;;24.70;99.90;;;;;;4994735;28;20037;-51
2022/08/25 08:33:56;;;;;;;7.85;3.88;;;24.80;99.90;;;;;;4992730;28;20047;-54
2022/08/25 08:36:24;;;;;;;4.05;3.35;;;24.90;99.90;;;;;;4999477;28;20033;-53
2022/08/25 08:38:50;;;;;;;6.65;3.72;;;25.10;99.90;;;;;;4998396;28;20022;-51
2022/08/25 08:44:27;;;;;;;6.13;3.25;;;25.30;99.90;;;;;;4996543;28;20032;-53
2022/08/25 08:47:15;;;;;;;4.88;3.22;;;25.50;99.90;;;;;;4996071;28;20041;-53
2022/08/25 08:50:05;;;;;;;5.47;3.17;;;25.70;99.90;;;;;;5001595;28;20040;-53
2022/08/25 08:52:43;;;;;;;4.82;2.65;;;25.90;99.90;;;;;;4995592;28;20032;-53
2022/08/25 08:55:26;;;;;;;9.82;3.40;;;26.00;99.90;;;;;;4999569;28;20025;-52
2022/08/25 08:57:54;;;;;;;5.07;2.55;;;26.10;99.90;;;;;;5001843;28;20037;-53
2022/08/25 09:00:20;;;;;;;10.75;4.28;;;26.20;99.90;;;;;;4997226;28;20487;-54
2022/08/25 09:03:03;;;;;;;6.00;2.75;;;26.20;99.90;;;;;;4998250;28;20036;-52
2022/08/25 09:05:34;;;;;;;8.43;2.92;;;26.40;99.90;;;;;;4999031;28;20610;-53
2022/08/25 09:08:05;;;;;;;6.43;3.00;;;26.60;99.90;;;;;;4996641;28;20040;-53
2022/08/25 09:10:49;;;;;;;6.90;2.95;;;26.70;99.90;;;;;;4998110;28;20041;-52
2022/08/25 09:13:23;;;;;;;;;;;26.90;99.90;;;;;;5001108;28;20025;-51
2022/08/25 09:19:04;;;;;;;3.97;2.80;;;27.20;99.90;;;;;;4999742;28;20064;-50
2022/08/25 09:21:45;;;;;;;3.95;3.15;;;27.30;99.90;;;;;;5001334;28;20034;-53
2022/08/25 09:24:42;;;;;;;4.53;2.95;;;27.50;99.90;;;;;;4996896;28;20026;-52
2022/08/25 09:27:40;;;;;;;5.63;3.15;;;27.60;99.90;;;;;;5002145;28;20399;-51
2022/08/25 09:30:13;;;;;;;5.75;2.55;;;27.90;99.90;;;;;;4996505;28;20061;-51
2022/08/25 09:32:42;;;;;;;3.28;2.83;;;28.10;99.90;;;;;;4999408;28;20022;-53
2022/08/25 09:35:17;;;;;;;5.80;2.78;;;28.20;99.90;;;;;;4992727;28;20030;-53
2022/08/25 09:37:53;;;;;;;4.13;2.78;;;28.30;99.90;;;;;;4992566;28;20457;-51
2022/08/25 09:40:19;;;;;;;4.30;2.80;;;28.50;99.90;;;;;;5001972;28;20034;-53
2022/08/25 09:42:48;;;;;;;4.15;3.05;;;28.60;99.90;;;;;;4992568;28;20579;-51
2022/08/25 09:45:14;;;;;;;7.28;3.05;;;28.80;99.90;;;;;;5002987;28;20034;-54
2022/08/25 09:47:44;;;;;;;3.85;2.22;;;29.00;99.90;;;;;;5009683;28;20563;-53
2022/08/25 09:50:19;;;;;;;3.65;2.80;;;29.10;99.90;;;;;;5003537;28;20056;-52
2022/08/25 09:52:45;;;;;;;4.07;3.05;;;29.20;99.90;;;;;;5007983;28;20023;-51
2022/08/25 09:55:20;;;;;;;6.00;2.72;;;29.30;99.90;;;;;;5002959;28;20065;-51
2022/08/25 09:57:49;;;;;;;6.80;3.03;;;29.50;99.90;;;;;;4992893;28;20030;-52
2022/08/25 10:00:32;;;;;;;6.15;2.50;;;29.80;99.90;;;;;;4999050;28;20034;-51
2022/08/25 10:03:20;;;;;;;7.10;2.95;;;30.00;99.90;;;;;;5005715;28;20068;-51
2022/08/25 10:06:04;;;;;;;4.47;2.65;;;30.10;99.90;;;;;;5000302;28;20830;-53
2022/08/25 10:08:34;;;;;;;5.07;2.63;;;30.30;99.90;;;;;;5017106;28;20018;-50
2022/08/25 10:11:04;;;;;;;3.25;2.67;;;30.50;99.90;;;;;;5004784;28;20029;-54
2022/08/25 10:13:59;;;;;;;3.85;2.60;;;30.70;99.90;;;;;;4997262;28;20067;-53
2022/08/25 10:16:27;;;;;;;5.13;2.92;;;30.50;99.90;;;;;;4994586;28;20408;-52
2022/08/25 10:19:28;;;;;;;5.25;2.78;;;30.60;99.90;;;;;;4996234;28;20065;-52
2022/08/25 10:22:30;;;;;;;5.05;2.70;;;30.80;99.90;;;;;;5001012;28;20112;-53
2022/08/25 10:24:56;;;;;;;5.80;2.70;;;31.10;99.90;;;;;;4997516;28;20037;-51
2022/08/25 10:27:25;;;;;;;5.57;2.50;;;31.10;99.90;;;;;;4991876;28;20030;-52
2022/08/25 10:30:06;;;;;;;7.03;2.50;;;31.10;99.90;;;;;;5004894;28;20029;-52
2022/08/25 10:32:39;;;;;;;2.60;2.40;;;31.30;99.90;;;;;;4997220;28;20396;-51
2022/08/25 10:35:13;;;;;;;5.00;2.60;;;31.60;99.90;;;;;;5011108;28;20380;-52
2022/08/25 10:37:57;;;;;;;;;;;31.70;99.90;;;;;;5011996;28;20068;-51
2022/08/25 10:40:30;;;;;;;5.03;2.45;;;31.70;99.90;;;;;;5006517;28;19910;-52
2022/08/25 10:43:09;;;;;;;2.83;2.53;;;31.80;99.90;;;;;;5004424;28;20093;-51
2022/08/25 10:45:48;;;;;;;3.13;2.42;;;32.00;99.90;;;;;;5004918;28;20104;-51
2022/08/25 10:48:32;;;;;;;2.47;2.25;;;32.30;99.90;;;;;;4996377;28;20104;-51
2022/08/25 10:51:16;;;;;;;4.05;2.38;;;32.50;99.90;;;;;;4999887;28;20026;-53
2022/08/25 10:53:51;;;;;;;;;;;32.40;99.90;;;;;;4998529;28;20053;-53
2022/08/25 10:56:23;;;;;;;10.68;3.17;;;32.60;99.90;;;;;;4998394;28;19905;-53
2022/08/25 10:58:51;;;;;;;3.00;2.65;;;33.00;99.90;;;;;;4998268;28;20026;-54
2022/08/25 11:01:22;;;;;;;4.75;3.25;;;32.80;99.90;;;;;;4999370;28;20526;-52
2022/08/25 11:03:58;;;;;;;5.38;2.97;;;32.80;99.90;;;;;;5005423;28;20033;-51
2022/08/25 11:06:38;;;;;;;6.43;2.60;;;33.10;99.90;;;;;;4996728;28;20058;-53
2022/08/25 11:09:11;;;;;;;5.40;2.88;;;33.20;99.90;;;;;;4992486;28;20121;-52
2022/08/25 11:12:01;;;;;;;8.18;3.17;;;33.40;99.90;;;;;;4994596;28;20025;-54
2022/08/25 11:14:36;;;;;;;8.05;2.63;;;33.30;99.90;;;;;;4997425;28;20076;-53
2022/08/25 11:17:15;;;;;;;3.67;2.70;;;33.40;99.90;;;;;;4997163;28;20868;-52
2022/08/25 11:19:47;;;;;;;5.32;3.00;;;33.40;99.10;;;;;;5000158;28;20124;-54
2022/08/25 11:22:28;;;;;;;3.95;2.70;;;33.30;99.40;;;;;;4999415;28;20574;-53
2022/08/25 11:25:13;;;;;;;8.23;3.85;;;33.70;97.70;;;;;;5000362;28;20065;-53
2022/08/25 11:27:51;;;;;;;2.45;2.10;;;33.70;97.70;;;;;;5001131;28;20053;-52
2022/08/25 11:30:18;;;;;;;8.25;2.85;;;34.00;97.50;;;;;;5006067;28;20101;-51
2022/08/25 11:32:48;;;;;;;3.58;2.50;;;34.10;95.90;;;;;;5012021;28;20175;-51
2022/08/25 11:35:17;;;;;;;2.83;2.50;;;34.00;95.60;;;;;;5014001;28;20018;-53
2022/08/25 11:38:11;;;;;;;4.07;2.60;;;33.80;96.40;;;;;;5012777;28;20095;-54
2022/08/25 11:40:43;;;;;;;;;;;34.00;98.00;;;;;;5001154;28;20042;-53
2022/08/25 11:43:36;;;;;;;7.13;3.17;;;33.70;96.10;;;;;;5005507;28;20249;-53
2022/08/25 11:46:11;;;;;;;4.43;2.97;;;33.60;97.00;;;;;;5003131;28;20045;-52
2022/08/25 11:49:07;;;;;;;6.05;2.90;;;33.60;96.20;;;;;;5000189;28;20030;-52
2022/08/25 11:51:46;;;;;;;10.25;2.97;;;33.40;96.60;;;;;;5004904;28;20027;-53
2022/08/25 11:54:26;;;;;;;11.13;3.20;;;33.70;96.60;;;;;;5005193;28;20026;-52
2022/08/25 11:56:56;;;;;;;3.53;2.63;;;33.80;95.60;;;;;;5007908;28;20051;-53
2022/08/25 11:59:56;;;;;;;3.17;2.55;;;34.10;94.80;;;;;;5007786;28;20113;-52
2022/08/25 12:02:38;;;;;;;5.18;2.67;;;34.40;93.60;;;;;;4997621;28;20034;-51
2022/08/25 12:05:05;;;;;;;4.25;2.58;;;34.70;92.40;;;;;;5011890;28;20101;-52
2022/08/25 12:07:45;;;;;;;6.07;2.50;;;34.50;93.00;;;;;;4999672;28;20038;-51
2022/08/25 12:10:23;;;;;;;4.05;2.40;;;34.70;92.70;;;;;;5008904;28;20507;-52
2022/08/25 12:12:58;;;;;;;3.95;2.22;;;34.80;94.30;;;;;;4999383;28;20061;-52
2022/08/25 12:15:30;;;;;;;7.30;2.38;;;35.20;89.60;;;;;;5010687;28;20542;-53
2022/08/25 12:20:51;;;;;;;3.63;3.05;;;34.40;88.90;;;;;;5050670;22;20045;-63
2022/08/25 12:23:30;;;;;;;6.47;2.72;;;34.60;90.10;;;;;;5027118;28;20451;-65
2022/08/25 12:26:03;;;;;;;7.55;3.00;;;34.80;88.70;;;;;;5030074;28;20127;-64
2022/08/25 12:28:36;;;;;;;3.28;2.97;;;34.80;88.40;;;;;;5024260;28;20102;-64
2022/08/25 12:31:13;;;;;;;4.03;2.55;;;35.00;89.20;;;;;;5030847;28;20029;-65
2022/08/25 12:33:44;;;;;;;3.38;2.22;;;35.30;87.50;;;;;;5032370;28;20053;-64
2022/08/25 12:36:24;;;;;;;4.35;2.58;;;35.20;80.90;;;;;;5031077;28;20032;-64
2022/08/25 12:38:51;;;;;;;6.95;3.05;;;35.10;87.00;;;;;;5032373;28;20112;-65
2022/08/25 12:41:24;;;;;;;5.43;2.88;;;35.20;89.70;;;;;;5037951;28;20021;-64
2022/08/25 12:43:53;;;;;;;11.57;2.95;;;35.70;87.80;;;;;;5030677;28;20590;-64
2022/08/25 12:46:18;;;;;;;7.53;3.08;;;35.80;83.10;;;;;;5035568;28;20394;-64
2022/08/25 12:49:23;;;;;;;7.60;3.55;;;35.50;85.00;;;;;;5034815;28;20104;-63
2022/08/25 12:51:53;;;;;;;;;;;35.40;85.60;;;;;;5026895;28;20041;-62
2022/08/25 12:54:34;;;;;;;6.65;3.30;;;35.30;84.20;;;;;;5025492;28;19905;-64
2022/08/25 12:57:06;;;;;;;4.45;3.10;;;35.60;82.10;;;;;;5034483;28;20611;-65
2022/08/25 12:59:40;;;;;;;4.07;2.83;;;35.50;84.00;;;;;;5033557;28;20568;-64
2022/08/25 13:02:40;;;;;;;4.57;3.40;;;35.90;84.30;;;;;;5022955;28;20032;-64
2022/08/25 13:05:30;;;;;;;11.70;3.05;;;35.70;84.60;;;;;;5026106;28;20506;-65
2022/08/25 13:08:07;;;;;;;5.40;3.17;;;35.70;83.70;;;;;;5030589;28;20037;-63
2022/08/25 13:10:48;;;;;;;7.90;2.65;;;35.90;82.40;;;;;;5048757;28;20426;-64
2022/08/25 13:13:32;;;;;;;3.97;2.25;;;36.10;81.80;;;;;;5029615;28;20100;-65
2022/08/25 13:16:05;;;;;;;5.55;3.10;;;35.40;79.30;;;;;;5029684;28;20418;-64
2022/08/25 13:18:33;;;;;;;5.30;2.72;;;35.80;79.00;;;;;;5025503;28;20033;-64
2022/08/25 13:21:18;;;;;;;5.13;2.40;;;35.50;79.70;;;;;;5030959;28;20044;-65